Terminal Aerodrome Forecast
Issued by NWS

Home | Current Version | Previous Version | Text Only | Print | Product List | Glossary Off
Versions: 1 2 3 4 5 6 7 8 9 10 11 12 13 14 15 16 17

000
FTUS43 KMPX 251700
TAFRNH
TAF
KRNH 251734Z 2518/2618 23005KT P6SM OVC035
     FM260000 16004KT P6SM BKN040 OVC080
     FM261200 07006KT 6SM -SN BR BKN035 OVC060
     FM261500 06007KT 2SM -SN BR OVC025=

USA.gov is the U.S. government's official web portal to all federal, state and local government web resources and services.